Time;durP1;ratioP1;P1;durP2;ratioP2;P2;SDS_P1;SDS_P2;PMS_P1;PMS_P2;Temp;Humidity;BMP_temperature;BMP_pressure;BME280_temperature;BME280_humidity;BME280_pressure;Samples;Min_cycle;Max_cycle;Signal;HPM_P1;HPM_P2
2022/02/16 00:00:25;;;;;;;27.00;21.63;;;9.20;99.90;;;;;;5074872;28;20169;-89
2022/02/16 00:02:50;;;;;;;33.20;21.27;;;9.20;99.90;;;;;;5057004;28;20205;-86
2022/02/16 00:05:18;;;;;;;32.63;20.30;;;9.20;99.90;;;;;;5056783;28;20181;-86
2022/02/16 00:07:44;;;;;;;47.33;30.20;;;9.20;99.90;;;;;;5056963;28;20296;-89
2022/02/16 00:10:12;;;;;;;35.57;23.97;;;9.20;99.90;;;;;;5075459;28;20634;-88
2022/02/16 00:12:39;;;;;;;33.20;19.83;;;9.20;99.90;;;;;;5074884;28;20473;-89
2022/02/16 00:15:07;;;;;;;43.70;29.90;;;9.20;99.90;;;;;;5075540;28;20264;-89
2022/02/16 00:17:34;;;;;;;28.45;19.77;;;9.20;99.90;;;;;;5074419;28;20565;-89
2022/02/16 00:20:00;;;;;;;27.40;20.38;;;9.20;99.90;;;;;;5074487;28;20176;-89
2022/02/16 00:22:25;;;;;;;28.53;19.93;;;9.20;99.90;;;;;;5074913;28;20200;-89
2022/02/16 00:24:51;;;;;;;33.77;19.80;;;9.20;99.90;;;;;;5075145;28;20398;-86
2022/02/16 00:27:17;;;;;;;25.50;19.10;;;9.30;99.90;;;;;;5075185;28;20238;-89
2022/02/16 00:29:43;;;;;;;30.37;19.67;;;9.30;99.90;;;;;;5075338;28;20385;-85
2022/02/16 00:32:09;;;;;;;38.33;24.77;;;9.40;99.90;;;;;;5057340;28;20465;-90
2022/02/16 00:34:36;;;;;;;45.50;24.58;;;9.40;99.90;;;;;;5057110;28;20258;-90
2022/02/16 00:37:02;;;;;;;40.65;25.42;;;9.40;99.90;;;;;;5073500;28;20204;-85
2022/02/16 00:39:28;;;;;;;32.67;21.30;;;9.50;99.90;;;;;;5056761;28;20169;-85
2022/02/16 00:41:53;;;;;;;28.03;19.73;;;9.50;99.90;;;;;;5075275;28;20381;-89
2022/02/16 00:44:19;;;;;;;30.20;21.67;;;9.50;99.90;;;;;;5074900;28;20222;-88
2022/02/16 00:46:45;;;;;;;31.90;20.00;;;9.50;99.90;;;;;;5059702;28;20173;-89
2022/02/16 00:49:10;;;;;;;27.07;20.60;;;9.50;99.90;;;;;;5078975;28;20177;-87
2022/02/16 00:51:36;;;;;;;29.40;19.70;;;9.50;99.90;;;;;;5060694;28;20254;-86
2022/02/16 00:54:02;;;;;;;28.57;20.20;;;9.50;99.90;;;;;;5061423;28;20274;-85
2022/02/16 00:56:27;;;;;;;29.10;20.57;;;9.50;99.90;;;;;;5078977;28;20173;-85
2022/02/16 00:58:53;;;;;;;30.57;22.27;;;9.50;99.90;;;;;;5078883;28;20203;-85
2022/02/16 01:01:18;;;;;;;32.00;20.97;;;9.50;99.90;;;;;;5060334;28;20181;-86
2022/02/16 01:03:44;;;;;;;31.87;22.20;;;9.50;99.90;;;;;;5061050;28;20209;-88
2022/02/16 01:06:12;;;;;;;39.10;23.47;;;9.50;99.90;;;;;;5060670;28;20177;-85
2022/02/16 01:08:38;;;;;;;34.50;23.17;;;9.50;99.90;;;;;;5078550;28;20685;-85
2022/02/16 01:11:04;;;;;;;28.47;21.63;;;9.50;99.90;;;;;;5060387;28;20181;-89
2022/02/16 01:13:29;;;;;;;32.60;22.20;;;9.50;99.90;;;;;;5077955;28;20233;-85
2022/02/16 01:15:56;;;;;;;33.00;22.33;;;9.50;99.90;;;;;;5078769;28;20778;-89
2022/02/16 01:18:22;;;;;;;31.52;23.25;;;9.50;99.90;;;;;;5060414;28;20201;-85
2022/02/16 01:20:48;;;;;;;41.40;29.50;;;9.50;99.90;;;;;;5060171;28;20192;-85
2022/02/16 01:23:13;;;;;;;37.13;28.20;;;9.50;99.90;;;;;;5078566;28;20204;-84
2022/02/16 01:25:39;;;;;;;52.30;32.50;;;9.50;99.90;;;;;;5078454;28;20418;-88
2022/02/16 01:28:05;;;;;;;50.63;33.70;;;9.60;99.90;;;;;;5060584;28;20228;-89
2022/02/16 01:30:31;;;;;;;40.80;28.67;;;9.60;99.90;;;;;;5078091;28;20903;-85
2022/02/16 01:32:56;;;;;;;39.70;29.20;;;9.60;99.90;;;;;;5060009;28;20236;-86
2022/02/16 01:35:22;;;;;;;43.20;30.20;;;9.60;99.90;;;;;;5060157;28;20384;-86
2022/02/16 01:37:48;;;;;;;41.37;27.20;;;9.50;99.90;;;;;;5060279;28;20201;-85
2022/02/16 01:40:14;;;;;;;37.53;26.30;;;9.50;99.90;;;;;;5077779;28;20173;-89
2022/02/16 01:42:39;;;;;;;36.20;27.07;;;9.50;99.90;;;;;;5059566;28;20680;-86
2022/02/16 01:45:07;;;;;;;31.57;23.57;;;9.50;99.90;;;;;;5077641;28;20173;-86
2022/02/16 01:47:40;;;;;;;27.88;20.55;;;9.50;99.90;;;;;;5062296;28;20425;-90
2022/02/16 01:50:07;;;;;;;34.10;20.90;;;9.40;99.90;;;;;;5075761;28;20205;-86
2022/02/16 01:52:33;;;;;;;39.70;24.63;;;9.30;99.90;;;;;;5075680;28;20193;-89
2022/02/16 01:54:59;;;;;;;29.90;21.33;;;9.30;99.90;;;;;;5076826;28;20212;-86
2022/02/16 01:57:25;;;;;;;34.30;22.17;;;9.20;99.90;;;;;;5076623;28;20197;-86
2022/02/16 01:59:52;;;;;;;29.47;20.40;;;9.20;99.90;;;;;;5076494;28;20750;-89
2022/02/16 02:02:18;;;;;;;32.53;21.67;;;9.20;99.90;;;;;;5058803;28;20201;-90
2022/02/16 02:04:44;;;;;;;29.50;21.57;;;9.10;99.90;;;;;;5076394;28;20259;-86
2022/02/16 02:07:10;;;;;;;34.93;22.20;;;9.20;99.90;;;;;;5076756;28;20418;-85
2022/02/16 02:09:36;;;;;;;35.47;22.92;;;9.10;99.90;;;;;;5075397;28;20177;-90
2022/02/16 02:12:02;;;;;;;32.30;22.02;;;9.20;99.90;;;;;;5076127;28;20173;-86
2022/02/16 02:14:28;;;;;;;30.65;21.13;;;9.20;99.90;;;;;;5075670;28;20212;-86
2022/02/16 02:16:54;;;;;;;30.90;21.10;;;9.20;99.90;;;;;;5080099;28;20190;-86
2022/02/16 02:19:20;;;;;;;29.47;21.50;;;9.20;99.90;;;;;;5079029;28;20176;-86
2022/02/16 02:21:47;;;;;;;27.80;21.63;;;9.10;99.90;;;;;;5060773;28;20178;-85
2022/02/16 02:24:12;;;;;;;35.78;21.63;;;9.20;99.90;;;;;;5075458;28;20433;-85
2022/02/16 02:26:38;;;;;;;30.67;20.67;;;9.10;99.90;;;;;;5058554;28;20185;-87
2022/02/16 02:29:04;;;;;;;29.60;21.00;;;9.10;99.90;;;;;;5058818;28;20762;-85
2022/02/16 02:31:32;;;;;;;34.75;22.15;;;9.10;99.90;;;;;;5059048;28;20216;-85
2022/02/16 02:33:59;;;;;;;33.88;21.73;;;9.00;99.90;;;;;;5077124;28;20217;-86
2022/02/16 02:36:24;;;;;;;29.35;21.02;;;9.00;99.90;;;;;;5076148;28;20638;-88
2022/02/16 02:38:50;;;;;;;35.93;22.87;;;9.00;99.90;;;;;;5076956;28;20205;-86
2022/02/16 02:41:16;;;;;;;31.30;20.87;;;9.00;99.90;;;;;;5080162;28;20173;-86
2022/02/16 02:43:45;;;;;;;27.95;20.80;;;9.00;99.90;;;;;;5085906;28;20205;-90
2022/02/16 02:46:11;;;;;;;32.47;21.90;;;9.00;99.90;;;;;;5077419;28;20161;-89
2022/02/16 02:48:37;;;;;;;28.23;20.75;;;9.00;99.90;;;;;;5077068;28;20206;-90
2022/02/16 02:51:03;;;;;;;31.33;21.43;;;9.00;99.90;;;;;;5060327;28;20248;-86
2022/02/16 02:53:29;;;;;;;33.40;22.27;;;9.00;99.90;;;;;;5077691;28;20255;-84
2022/02/16 02:55:54;;;;;;;32.77;21.53;;;9.00;99.90;;;;;;5078083;28;20200;-87
2022/02/16 02:58:20;;;;;;;30.97;20.93;;;9.10;99.90;;;;;;5078607;28;20223;-88
2022/02/16 03:00:46;;;;;;;32.10;21.23;;;9.00;99.90;;;;;;5077194;28;20181;-85
2022/02/16 03:03:12;;;;;;;37.47;25.03;;;9.00;99.90;;;;;;5076259;28;20201;-89
2022/02/16 03:05:37;;;;;;;42.80;26.27;;;9.00;99.90;;;;;;5059150;28;20815;-87
2022/02/16 03:08:04;;;;;;;34.10;24.10;;;9.00;99.90;;;;;;5058475;28;20783;-86
2022/02/16 03:10:30;;;;;;;37.85;23.42;;;9.00;99.90;;;;;;5077135;28;20394;-85
2022/02/16 03:12:56;;;;;;;31.90;21.05;;;8.90;99.90;;;;;;5080776;28;20247;-87
2022/02/16 03:15:22;;;;;;;35.37;20.97;;;8.90;99.90;;;;;;5076490;28;20173;-89
2022/02/16 03:17:48;;;;;;;30.97;20.77;;;8.80;99.90;;;;;;5093214;28;20507;-90
2022/02/16 03:20:14;;;;;;;26.77;19.03;;;8.80;99.90;;;;;;5086472;28;20181;-87
2022/02/16 03:22:40;;;;;;;26.40;19.15;;;8.80;99.90;;;;;;5094963;28;20235;-89
2022/02/16 03:25:07;;;;;;;29.30;20.50;;;8.80;99.90;;;;;;5087655;28;20177;-85
2022/02/16 03:27:33;;;;;;;28.33;20.30;;;8.70;99.90;;;;;;5079432;28;20200;-89
2022/02/16 03:30:00;;;;;;;29.50;18.55;;;8.70;99.90;;;;;;5077754;28;20173;-85
2022/02/16 03:32:26;;;;;;;28.75;19.85;;;8.70;99.90;;;;;;5092022;28;20210;-86
2022/02/16 03:34:51;;;;;;;26.90;19.20;;;8.70;99.90;;;;;;5094771;28;20205;-89
2022/02/16 03:37:17;;;;;;;29.83;20.30;;;8.70;99.90;;;;;;5075710;28;20220;-86
2022/02/16 03:39:44;;;;;;;27.87;20.03;;;8.70;99.90;;;;;;5075351;28;20372;-85
2022/02/16 03:42:10;;;;;;;29.13;19.52;;;8.70;99.90;;;;;;5090439;28;20204;-85
2022/02/16 03:44:35;;;;;;;28.50;18.30;;;8.70;99.90;;;;;;5091657;28;20177;-85
2022/02/16 03:47:02;;;;;;;25.77;18.10;;;8.70;99.90;;;;;;5074529;28;20392;-89
2022/02/16 03:49:28;;;;;;;26.50;18.08;;;8.70;99.90;;;;;;5090153;28;20459;-89
2022/02/16 03:51:53;;;;;;;25.38;17.48;;;8.70;99.90;;;;;;5089876;28;20173;-87
2022/02/16 03:54:19;;;;;;;27.20;19.30;;;8.70;99.90;;;;;;5090412;28;20258;-88
2022/02/16 03:56:45;;;;;;;27.73;18.27;;;8.70;99.90;;;;;;5073126;28;20230;-85
2022/02/16 03:59:11;;;;;;;26.67;19.55;;;8.70;99.90;;;;;;5090557;28;20270;-86
2022/02/16 04:01:37;;;;;;;32.60;20.97;;;8.70;99.90;;;;;;5074068;28;20690;-86
2022/02/16 04:04:03;;;;;;;33.03;22.77;;;8.70;99.90;;;;;;5074873;28;20450;-89
2022/02/16 04:06:29;;;;;;;38.22;26.95;;;8.70;99.90;;;;;;5073474;28;20406;-85
2022/02/16 04:08:54;;;;;;;33.83;24.20;;;8.60;99.90;;;;;;5089921;28;20556;-85
2022/02/16 04:11:26;;;;;;;38.63;24.33;;;8.60;99.90;;;;;;5074261;28;20406;-88
2022/02/16 04:13:53;;;;;;;37.17;26.15;;;8.60;99.90;;;;;;5074041;28;20718;-86
2022/02/16 04:16:20;;;;;;;35.90;25.60;;;8.60;99.90;;;;;;5074443;28;20173;-90
2022/02/16 04:18:45;;;;;;;40.03;26.15;;;8.60;99.90;;;;;;5073313;28;20260;-89
2022/02/16 04:21:11;;;;;;;38.90;26.70;;;8.60;99.90;;;;;;5074511;28;20169;-86
2022/02/16 04:23:37;;;;;;;47.00;30.03;;;8.50;99.90;;;;;;5056518;28;20541;-89
2022/02/16 04:26:03;;;;;;;47.47;29.57;;;8.50;99.90;;;;;;5056706;28;20181;-88
2022/02/16 04:28:29;;;;;;;48.47;30.87;;;8.50;99.90;;;;;;5074908;28;20592;-87
2022/02/16 04:30:54;;;;;;;46.47;31.53;;;8.40;99.90;;;;;;5074374;28;20426;-88
2022/02/16 04:33:20;;;;;;;48.50;29.60;;;8.40;99.90;;;;;;5074485;28;20223;-89
2022/02/16 04:35:46;;;;;;;48.73;30.23;;;8.40;99.90;;;;;;5056429;28;20779;-85
2022/02/16 04:38:12;;;;;;;48.97;30.37;;;8.30;99.90;;;;;;5056653;28;20283;-90
2022/02/16 04:40:39;;;;;;;49.00;30.80;;;8.40;99.90;;;;;;5056934;28;20169;-86
2022/02/16 04:43:05;;;;;;;49.28;32.42;;;8.40;99.90;;;;;;5073763;28;20209;-88
2022/02/16 04:45:32;;;;;;;52.45;31.65;;;8.40;99.90;;;;;;5056742;28;20177;-88
2022/02/16 04:47:59;;;;;;;48.05;32.55;;;8.40;99.90;;;;;;5074801;28;20220;-86
2022/02/16 04:50:26;;;;;;;50.35;31.67;;;8.50;99.90;;;;;;5077710;28;20693;-90
2022/02/16 04:52:56;;;;;;;53.60;32.03;;;8.40;99.90;;;;;;5074953;28;20590;-86
2022/02/16 04:55:23;;;;;;;53.05;33.40;;;8.40;99.90;;;;;;5073592;28;20173;-86
2022/02/16 04:57:49;;;;;;;52.17;33.97;;;8.40;99.90;;;;;;5073359;28;20229;-86
2022/02/16 05:00:15;;;;;;;48.93;31.33;;;8.40;99.90;;;;;;5058322;28;20188;-89
2022/02/16 05:02:41;;;;;;;53.75;34.83;;;8.40;99.90;;;;;;5074057;28;20262;-89
2022/02/16 05:05:09;;;;;;;62.97;34.85;;;8.40;99.90;;;;;;5075003;28;20181;-89
2022/02/16 05:07:35;;;;;;;57.03;36.60;;;8.40;99.90;;;;;;5057287;28;20251;-86
2022/02/16 05:10:01;;;;;;;61.55;35.83;;;8.40;99.90;;;;;;5074537;28;20654;-86
2022/02/16 05:12:27;;;;;;;65.20;37.47;;;8.40;99.90;;;;;;5073110;28;20268;-89
2022/02/16 05:14:52;;;;;;;57.43;35.67;;;8.40;99.90;;;;;;5082301;28;20357;-89
2022/02/16 05:17:18;;;;;;;58.50;34.80;;;8.40;99.90;;;;;;5093925;28;20554;-86
2022/02/16 05:19:44;;;;;;;58.90;37.17;;;8.40;99.90;;;;;;5094360;28;20208;-87
2022/02/16 05:22:10;;;;;;;64.20;37.03;;;8.50;99.90;;;;;;5092638;28;20565;-89
2022/02/16 05:24:35;;;;;;;60.17;36.30;;;8.50;99.90;;;;;;5092937;28;20216;-86
2022/02/16 05:27:01;;;;;;;70.60;42.07;;;8.50;99.90;;;;;;5076918;28;20177;-89
2022/02/16 05:29:27;;;;;;;75.70;47.23;;;8.50;99.90;;;;;;5083861;28;20405;-86
2022/02/16 05:31:53;;;;;;;86.00;46.80;;;8.50;99.90;;;;;;5101586;28;20446;-86
2022/02/16 05:34:19;;;;;;;86.07;47.00;;;8.60;99.90;;;;;;5101763;28;20290;-89
2022/02/16 05:36:46;;;;;;;62.50;40.10;;;8.60;99.90;;;;;;5108276;28;20275;-86
2022/02/16 05:39:12;;;;;;;73.22;38.92;;;8.50;99.90;;;;;;5093086;28;20437;-86
2022/02/16 05:41:37;;;;;;;65.37;39.37;;;8.50;99.90;;;;;;5092259;28;20221;-88
2022/02/16 05:44:03;;;;;;;66.67;36.30;;;8.50;99.90;;;;;;5094069;28;20464;-86
2022/02/16 05:46:29;;;;;;;61.00;36.30;;;8.50;99.90;;;;;;5106954;28;20650;-89
2022/02/16 05:48:55;;;;;;;59.90;36.50;;;8.50;99.90;;;;;;5093205;28;20200;-89
2022/02/16 05:51:20;;;;;;;61.60;35.30;;;8.50;99.90;;;;;;5094569;28;20191;-86
2022/02/16 05:53:46;;;;;;;63.30;35.23;;;8.50;99.90;;;;;;5090563;28;20289;-89
2022/02/16 05:56:12;;;;;;;63.17;35.53;;;8.50;99.90;;;;;;5093344;28;20473;-88
2022/02/16 05:58:38;;;;;;;69.47;36.70;;;8.60;99.90;;;;;;5095906;28;20435;-86
2022/02/16 06:01:04;;;;;;;64.82;38.55;;;8.60;99.90;;;;;;5094664;28;20408;-90
2022/02/16 06:03:30;;;;;;;76.40;41.23;;;8.60;99.90;;;;;;5129799;27;20774;-89
2022/02/16 06:05:56;;;;;;;76.77;40.67;;;8.50;99.90;;;;;;5094134;28;20180;-89
2022/02/16 06:08:21;;;;;;;73.07;38.03;;;8.40;99.90;;;;;;5094977;28;20242;-89
2022/02/16 06:10:48;;;;;;;64.93;36.10;;;8.30;99.90;;;;;;5096736;28;20172;-86
2022/02/16 06:13:14;;;;;;;75.72;37.65;;;8.30;99.90;;;;;;5095138;28;20232;-89
2022/02/16 06:15:41;;;;;;;69.20;40.08;;;8.20;99.90;;;;;;5094813;28;20585;-86
2022/02/16 06:18:06;;;;;;;68.18;36.75;;;8.20;99.90;;;;;;5095079;28;20303;-89
2022/02/16 06:20:32;;;;;;;69.87;39.40;;;8.20;99.90;;;;;;5095132;28;20208;-86
2022/02/16 06:22:58;;;;;;;65.60;37.13;;;8.20;99.90;;;;;;5093336;28;20453;-86
2022/02/16 06:25:24;;;;;;;71.00;39.50;;;8.20;99.90;;;;;;5093526;28;20687;-86
2022/02/16 06:27:51;;;;;;;76.78;41.55;;;8.20;99.90;;;;;;5093447;28;20663;-86
2022/02/16 06:30:17;;;;;;;69.50;37.20;;;8.10;99.90;;;;;;5095204;28;20230;-89
2022/02/16 06:32:46;;;;;;;75.75;38.95;;;8.10;99.90;;;;;;5095491;28;20196;-85
2022/02/16 06:35:12;;;;;;;83.22;41.65;;;8.00;99.90;;;;;;5094160;28;20226;-86
2022/02/16 06:37:38;;;;;;;74.32;40.33;;;8.00;99.90;;;;;;5095955;28;20279;-86
2022/02/16 06:40:04;;;;;;;85.60;42.60;;;8.00;99.90;;;;;;5079291;28;20668;-89
2022/02/16 06:42:31;;;;;;;74.30;41.80;;;8.00;99.90;;;;;;5089461;28;20216;-86
2022/02/16 06:44:56;;;;;;;76.57;40.80;;;8.00;99.90;;;;;;5092233;28;20275;-89
2022/02/16 06:47:22;;;;;;;68.67;38.30;;;8.00;99.90;;;;;;5091618;28;20295;-85
2022/02/16 06:49:48;;;;;;;74.57;39.57;;;8.00;99.90;;;;;;5087425;28;20184;-87
2022/02/16 06:52:14;;;;;;;62.70;36.30;;;7.90;99.90;;;;;;5091027;28;20303;-90
2022/02/16 06:54:39;;;;;;;73.37;38.27;;;7.90;99.90;;;;;;5096817;28;20231;-89
2022/02/16 06:57:05;;;;;;;71.93;38.33;;;7.90;99.90;;;;;;5099052;28;20438;-89
2022/02/16 06:59:31;;;;;;;69.17;36.10;;;7.90;99.90;;;;;;5094904;28;20673;-87
2022/02/16 07:01:57;;;;;;;70.00;36.80;;;7.90;99.90;;;;;;5095725;28;20421;-86
2022/02/16 07:04:23;;;;;;;63.90;36.53;;;7.80;99.90;;;;;;5096788;28;20180;-88
2022/02/16 07:06:48;;;;;;;76.17;38.17;;;7.80;99.90;;;;;;5109434;28;20871;-86
2022/02/16 07:09:15;;;;;;;67.57;37.30;;;7.80;99.90;;;;;;5093006;28;20393;-90
2022/02/16 07:11:41;;;;;;;61.20;36.00;;;7.80;99.90;;;;;;5092634;28;20257;-86
2022/02/16 07:14:06;;;;;;;70.60;35.33;;;7.80;99.90;;;;;;5109658;28;20672;-90
2022/02/16 07:16:32;;;;;;;70.27;39.30;;;7.80;99.90;;;;;;5095962;28;20216;-86
2022/02/16 07:18:58;;;;;;;63.73;34.57;;;7.80;99.90;;;;;;5093767;28;20299;-86
2022/02/16 07:21:24;;;;;;;66.90;34.73;;;7.80;99.90;;;;;;5093106;28;20230;-85
2022/02/16 07:23:50;;;;;;;65.97;35.63;;;7.70;99.90;;;;;;5107392;28;20220;-90
2022/02/16 07:26:16;;;;;;;68.20;36.85;;;7.70;99.90;;;;;;5102000;28;20408;-86
2022/02/16 07:28:42;;;;;;;77.77;39.00;;;7.70;99.90;;;;;;5092880;28;20215;-86
2022/02/16 07:31:08;;;;;;;62.85;35.95;;;7.70;99.90;;;;;;5091210;28;20283;-86
2022/02/16 07:33:34;;;;;;;72.63;37.53;;;7.70;99.90;;;;;;5091567;28;20311;-86
2022/02/16 07:36:00;;;;;;;75.30;37.70;;;7.70;99.90;;;;;;5089670;28;20410;-85
2022/02/16 07:38:26;;;;;;;72.10;39.63;;;7.70;99.90;;;;;;5088282;28;20234;-90
2022/02/16 07:40:52;;;;;;;64.97;37.10;;;7.70;99.90;;;;;;5092993;28;20474;-89
2022/02/16 07:43:17;;;;;;;66.83;37.50;;;7.80;99.90;;;;;;5095305;28;20247;-90
2022/02/16 07:45:48;;;;;;;68.90;35.57;;;7.80;99.90;;;;;;5101152;28;20183;-90
2022/02/16 07:48:14;;;;;;;69.95;36.35;;;7.80;99.90;;;;;;5092022;28;20216;-90
2022/02/16 07:50:40;;;;;;;75.03;38.60;;;7.90;99.90;;;;;;5090013;28;20557;-90
2022/02/16 07:53:09;;;;;;;67.20;35.23;;;7.90;99.90;;;;;;5093555;28;20204;-90
2022/02/16 07:55:34;;;;;;;69.10;37.08;;;7.90;99.90;;;;;;5093667;28;20188;-90
2022/02/16 07:58:02;;;;;;;55.20;30.90;;;7.90;99.90;;;;;;5094537;28;20262;-91
2022/02/16 08:00:31;;;;;;;56.13;32.53;;;8.00;99.90;;;;;;5091750;28;20188;-90
2022/02/16 08:02:58;;;;;;;64.43;34.05;;;8.00;99.90;;;;;;5091546;28;20204;-86
2022/02/16 08:05:24;;;;;;;60.35;33.47;;;8.00;99.90;;;;;;5092563;28;20280;-86
2022/02/16 08:07:51;;;;;;;60.25;34.83;;;8.10;99.90;;;;;;5088808;28;20208;-86
2022/02/16 08:10:17;;;;;;;64.93;36.70;;;8.10;99.90;;;;;;5089411;28;20177;-86
2022/02/16 08:12:56;;;;;;;59.75;32.72;;;8.20;99.90;;;;;;5091347;28;20240;-85
2022/02/16 08:15:23;;;;;;;54.05;33.65;;;8.20;99.90;;;;;;5094669;28;20743;-89
2022/02/16 08:17:48;;;;;;;56.50;32.90;;;8.20;99.90;;;;;;5091603;28;20219;-88
2022/02/16 08:20:14;;;;;;;60.23;33.33;;;8.30;99.90;;;;;;5096148;28;20184;-85
2022/02/16 08:22:40;;;;;;;60.13;34.57;;;8.30;99.90;;;;;;5097438;28;20585;-88
2022/02/16 08:25:07;;;;;;;55.90;31.33;;;8.40;99.90;;;;;;5101309;28;20421;-90
2022/02/16 08:27:33;;;;;;;55.33;30.75;;;8.40;99.90;;;;;;5088492;28;20556;-88
2022/02/16 08:29:59;;;;;;;50.80;31.67;;;8.40;99.90;;;;;;5124806;28;20184;-88
2022/02/16 08:32:25;;;;;;;50.28;30.30;;;8.50;99.90;;;;;;5092065;28;20299;-84
2022/02/16 08:34:51;;;;;;;57.50;32.40;;;8.50;99.90;;;;;;5088362;28;20295;-85
2022/02/16 08:37:18;;;;;;;53.50;31.20;;;8.50;99.90;;;;;;5118010;28;20300;-90
2022/02/16 08:39:44;;;;;;;53.83;33.03;;;8.50;99.90;;;;;;5093052;28;20437;-85
2022/02/16 08:42:10;;;;;;;53.37;32.97;;;8.60;99.90;;;;;;5092572;28;20591;-85
2022/02/16 08:44:36;;;;;;;52.80;32.25;;;8.70;99.90;;;;;;5098147;28;20460;-86
2022/02/16 08:47:02;;;;;;;52.90;31.57;;;8.80;99.90;;;;;;5086232;28;20180;-86
2022/02/16 08:49:28;;;;;;;52.30;33.22;;;8.90;99.90;;;;;;5091179;28;20177;-87
2022/02/16 08:51:54;;;;;;;54.40;32.00;;;9.00;99.90;;;;;;5089501;28;20303;-87
2022/02/16 08:54:20;;;;;;;57.73;32.30;;;9.00;99.90;;;;;;5089730;28;20274;-86
2022/02/16 08:56:50;;;;;;;49.58;32.63;;;9.10;99.90;;;;;;5094508;28;20177;-90
2022/02/16 08:59:17;;;;;;;48.83;30.45;;;9.20;99.90;;;;;;5094503;28;20184;-92
2022/02/16 09:01:43;;;;;;;55.92;31.75;;;9.30;99.90;;;;;;5087126;28;20211;-90
2022/02/16 09:04:09;;;;;;;47.88;29.98;;;9.50;99.90;;;;;;5087455;28;20200;-85
2022/02/16 09:06:35;;;;;;;49.03;31.83;;;9.60;99.90;;;;;;5092413;28;20187;-89
2022/02/16 09:09:03;;;;;;;42.05;28.70;;;9.90;99.90;;;;;;5097405;28;20679;-90
2022/02/16 09:11:29;;;;;;;41.08;26.33;;;10.30;99.90;;;;;;5096730;28;20190;-90
2022/02/16 09:13:56;;;;;;;39.88;26.65;;;10.60;99.90;;;;;;5099995;28;20246;-90
2022/02/16 09:16:23;;;;;;;38.28;25.45;;;11.00;99.90;;;;;;5079438;28;20264;-90
2022/02/16 09:18:49;;;;;;;38.03;26.55;;;11.50;99.90;;;;;;5078426;28;20235;-90
2022/02/16 09:21:17;;;;;;;31.17;23.55;;;12.00;99.90;;;;;;5077072;28;20237;-90
2022/02/16 09:23:43;;;;;;;37.50;24.90;;;12.70;99.90;;;;;;5077042;28;20240;-87
2022/02/16 09:26:09;;;;;;;32.57;22.60;;;13.40;99.90;;;;;;5079487;28;20219;-87
2022/02/16 09:28:36;;;;;;;33.40;23.23;;;14.20;99.90;;;;;;5074011;28;20235;-87
2022/02/16 09:31:02;;;;;;;28.30;21.83;;;14.70;99.90;;;;;;5068525;28;20473;-86
2022/02/16 09:33:28;;;;;;;31.63;23.50;;;15.20;99.90;;;;;;5082001;28;20467;-86
2022/02/16 09:35:55;;;;;;;30.00;23.13;;;15.60;99.90;;;;;;5090910;28;20441;-86
2022/02/16 09:38:21;;;;;;;30.00;22.93;;;16.10;99.90;;;;;;5073154;28;20484;-86
2022/02/16 09:40:49;;;;;;;29.27;20.60;;;16.60;99.90;;;;;;5095741;28;20461;-91
2022/02/16 09:43:22;;;;;;;26.50;21.23;;;16.80;99.90;;;;;;5079268;28;20200;-91
2022/02/16 09:45:53;;;;;;;25.33;20.87;;;17.00;99.90;;;;;;5079240;28;20792;-90
2022/02/16 09:48:22;;;;;;;29.37;22.30;;;17.40;99.90;;;;;;5079072;28;20448;-91
2022/02/16 09:50:49;;;;;;;26.93;20.87;;;17.70;99.90;;;;;;5097230;28;20452;-91
2022/02/16 09:53:15;;;;;;;35.40;25.10;;;18.10;99.90;;;;;;5096614;28;20452;-91
2022/02/16 09:55:41;;;;;;;37.73;27.70;;;18.30;99.90;;;;;;5097725;28;20507;-87
2022/02/16 09:58:07;;;;;;;30.63;22.37;;;18.60;99.90;;;;;;5094221;28;20207;-87
2022/02/16 10:00:32;;;;;;;27.43;21.90;;;19.10;99.90;;;;;;5080176;28;20192;-86
2022/02/16 10:03:09;;;;;;;23.50;18.77;;;19.50;99.70;;;;;;5076797;28;20292;-87
2022/02/16 10:05:36;;;;;;;26.40;21.90;;;19.90;98.30;;;;;;5076627;28;20193;-87
2022/02/16 10:08:06;;;;;;;24.70;18.83;;;20.10;97.60;;;;;;5091555;28;20450;-91
2022/02/16 10:10:32;;;;;;;23.13;18.67;;;20.20;96.40;;;;;;5097755;28;20436;-91
2022/02/16 10:12:59;;;;;;;24.40;19.97;;;20.10;95.20;;;;;;5086135;28;20560;-87
2022/02/16 10:15:38;;;;;;;20.77;18.57;;;19.80;95.50;;;;;;5095256;28;20507;-86
2022/02/16 10:18:10;;;;;;;22.20;19.00;;;19.50;95.60;;;;;;5093048;28;20977;-87
2022/02/16 10:20:36;;;;;;;20.40;16.83;;;19.20;95.60;;;;;;5095058;28;20441;-91
2022/02/16 10:23:02;;;;;;;24.37;19.30;;;18.80;95.30;;;;;;5090445;28;20969;-88
2022/02/16 10:25:32;;;;;;;20.00;16.40;;;18.40;95.80;;;;;;5097481;28;20421;-87
2022/02/16 10:28:18;;;;;;;19.87;16.70;;;18.00;96.30;;;;;;5090884;28;20457;-88
2022/02/16 10:31:07;;;;;;;20.37;17.33;;;17.80;96.60;;;;;;5084470;28;20807;-91
2022/02/16 10:33:44;;;;;;;21.80;16.60;;;17.60;97.30;;;;;;5093562;28;20548;-92
2022/02/16 10:36:23;;;;;;;18.80;16.13;;;17.40;97.30;;;;;;5091668;28;20535;-90
2022/02/16 10:38:58;;;;;;;19.90;15.83;;;17.20;97.00;;;;;;5093266;28;20452;-90
2022/02/16 10:41:53;;;;;;;57.10;35.30;;;17.00;97.10;;;;;;5089798;28;20448;-87
2022/02/16 10:44:31;;;;;;;81.77;50.70;;;16.80;97.30;;;;;;5073725;28;20444;-91
2022/02/16 10:47:11;;;;;;;51.00;35.53;;;16.50;97.80;;;;;;5091512;28;20420;-92
2022/02/16 10:49:43;;;;;;;28.07;21.10;;;16.30;97.80;;;;;;5091283;28;20441;-87
2022/02/16 10:52:20;;;;;;;18.10;15.20;;;16.20;98.20;;;;;;5098764;28;20687;-92
2022/02/16 10:54:58;;;;;;;21.27;15.33;;;16.10;98.20;;;;;;5127063;27;20496;-91
2022/02/16 10:57:24;;;;;;;23.07;18.53;;;16.10;98.40;;;;;;5090754;28;20452;-87
2022/02/16 10:59:49;;;;;;;18.90;14.90;;;16.00;99.00;;;;;;5092810;28;20476;-87
2022/02/16 11:02:18;;;;;;;20.40;15.20;;;15.90;98.70;;;;;;5091662;28;20433;-88
2022/02/16 11:04:46;;;;;;;19.17;15.97;;;15.70;99.10;;;;;;5089465;28;20183;-91
2022/02/16 11:07:13;;;;;;;19.07;15.03;;;15.70;99.20;;;;;;5090293;28;20445;-87
2022/02/16 11:09:42;;;;;;;17.57;14.50;;;15.60;99.30;;;;;;5091545;28;20463;-87
2022/02/16 11:12:08;;;;;;;20.40;15.23;;;15.70;99.60;;;;;;5093006;28;20500;-91
2022/02/16 11:14:35;;;;;;;21.77;17.07;;;15.70;99.10;;;;;;5062361;28;20569;-91
2022/02/16 11:17:02;;;;;;;21.10;17.30;;;15.70;99.20;;;;;;5053762;28;20315;-91
2022/02/16 11:19:32;;;;;;;18.43;15.70;;;15.70;99.30;;;;;;5080774;28;20942;-87
2022/02/16 11:22:09;;;;;;;20.00;16.67;;;15.70;99.60;;;;;;5073352;28;20438;-88
2022/02/16 11:24:42;;;;;;;16.73;13.90;;;15.60;99.00;;;;;;5087272;28;20430;-87
2022/02/16 11:27:21;;;;;;;19.63;15.63;;;15.60;99.50;;;;;;5069565;28;20683;-91
2022/02/16 11:29:47;;;;;;;20.80;16.23;;;15.60;99.40;;;;;;5054699;28;20440;-92
2022/02/16 11:32:12;;;;;;;19.40;16.00;;;15.70;99.50;;;;;;5082214;28;20966;-87
2022/02/16 11:34:39;;;;;;;19.40;15.90;;;15.70;99.60;;;;;;5059411;28;20477;-87
2022/02/16 11:37:08;;;;;;;18.23;14.80;;;15.80;99.70;;;;;;5056259;28;20591;-90
2022/02/16 11:39:48;;;;;;;18.77;14.50;;;15.80;99.50;;;;;;5058024;28;21148;-87
2022/02/16 11:42:40;;;;;;;19.60;15.60;;;15.80;99.30;;;;;;5051785;28;20500;-88
2022/02/16 11:45:07;;;;;;;16.20;13.67;;;15.80;99.60;;;;;;5052108;28;20970;-87
2022/02/16 11:47:36;;;;;;;19.50;15.00;;;15.80;99.30;;;;;;5067610;28;20439;-92
2022/02/16 11:50:14;;;;;;;18.03;14.90;;;15.90;99.30;;;;;;5072213;28;20669;-92
2022/02/16 11:52:57;;;;;;;17.43;14.60;;;15.90;99.10;;;;;;5054348;28;20846;-92
2022/02/16 11:55:24;;;;;;;17.13;13.67;;;15.90;99.40;;;;;;5050176;28;21022;-92
2022/02/16 11:57:54;;;;;;;18.30;14.90;;;16.00;99.20;;;;;;5076848;28;20457;-91
2022/02/16 12:00:26;;;;;;;17.27;14.10;;;16.00;99.30;;;;;;5051421;28;20412;-91
2022/02/16 12:02:55;;;;;;;19.03;16.10;;;16.00;99.50;;;;;;5047552;28;20528;-92
2022/02/16 12:06:02;;;;;;;19.07;15.50;;;16.00;99.40;;;;;;5058686;28;20446;-88
2022/02/16 12:08:42;;;;;;;19.40;15.50;;;16.00;99.10;;;;;;5048945;28;20772;-87
2022/02/16 12:11:20;;;;;;;20.30;16.00;;;16.00;99.40;;;;;;5052445;28;20449;-88
2022/02/16 12:13:51;;;;;;;21.50;16.87;;;15.90;99.50;;;;;;5084506;28;20491;-87
2022/02/16 12:16:42;;;;;;;21.03;17.20;;;15.80;99.90;;;;;;5067001;28;20472;-88
2022/02/16 12:19:09;;;;;;;21.53;15.07;;;15.70;99.90;;;;;;5078620;28;20930;-88
2022/02/16 12:21:39;;;;;;;19.30;15.83;;;15.60;99.90;;;;;;5055206;28;20515;-87
2022/02/16 12:24:09;;;;;;;18.30;14.20;;;15.50;99.80;;;;;;5058746;28;20523;-87
2022/02/16 12:26:43;;;;;;;18.40;15.13;;;15.40;99.90;;;;;;5052616;28;21004;-87
2022/02/16 12:29:22;;;;;;;23.47;15.60;;;15.30;99.90;;;;;;5072545;28;20447;-90
2022/02/16 12:31:53;;;;;;;21.33;14.40;;;15.30;99.90;;;;;;5072333;28;20461;-91
2022/02/16 12:34:23;;;;;;;16.00;13.17;;;15.20;99.90;;;;;;5074314;28;20481;-92